Hattiesburg, MS

7:08 AM CST on March 06, 2015 (GMT -0600)
Hattiesburg-Laurel Regional | Change Station
CLOSE
Current Station
Airport
Location: Pine Belt,
Elevation: 299 ft
Nearby Weather Stations

Elev 299 ft 31.47 °N, 89.34 °W | Updated 13 minutes ago

Clear
Clear
25 °F
Feels Like 13 °F
N
13
Wind Variable Wind from North
Gusts 17 mph

Today
High -- | Low -- °F
--% Chance of Precip.
Yesterday
High -- | Low -- °F
Precip. -- in
6:18 AM 5:58 PM
Waxing Gibbous, 99% visible
Pressure 30.50 in
Visibility 10.0 miles
Clouds Clear
Windchill 13 °F
Dew Point 16 °F
Humidity 69%
Rainfall 0.00 in
Snow Depth Not available.
UV 0 out of 12
Pollen 8.70 out of 12
Air Quality Not available.
Flu Activity Not available.
METAR KPIB 061255Z AUTO 36011G15KT 10SM CLR M04/M09 A3050 RMK AO1

More Conditions Fewer Conditions

Pressure 30.50 in
Visibility 10.0 miles
Clouds Clear
Windchill 13 °F
Dew Point 16 °F
Humidity 69%
Rainfall 0.00 in
Snow Depth Not available.
UV 0 out of 12
Pollen 8.70 out of 12
Air Quality Not available.
Flu Activity Not available.
METAR KPIB 061255Z AUTO 36011G15KT 10SM CLR M04/M09 A3050 RMK AO1

More Conditions Fewer Conditions

10-Day Weather Forecast

Almanac

Astronomy

Mar. 06, 2015 Rise Set
Actual Time
Civil Twilight
Nautical Twilight
Astronomical Twilight
Moon
Length of Visible Light
Length of Day
Tomorrow will be .
, % of the Moon is Illuminated

Today's Extremes

State Highs State Lows

Community

WunderPhotos

Upload Photos

1,803,252 photos uploaded!

WunderBlogs® & News

Nearby

Air Quality

  Air Quality AQ Index Pollutant
Not available.

Snow Depth

Station Depth Elevation

Earthquake Activity

City Distance Mag. Time & Date
Minimum magnitude displayed is 2.5.

Coastal Water Temperatures

Place Temperature

Nearby Weather Stations